Time;durP1;ratioP1;P1;durP2;ratioP2;P2;SDS_P1;SDS_P2;PMS_P1;PMS_P2;Temp;Humidity;BMP_temperature;BMP_pressure;BME280_temperature;BME280_humidity;BME280_pressure;Samples;Min_cycle;Max_cycle;Signal;HPM_P1;HPM_P2
2023/10/12 00:02:21;;;;;;;0.30;0.30;;;14.60;99.90;;;;;;5043091;28;20045;-76
2023/10/12 00:04:50;;;;;;;0.40;0.40;;;14.50;99.90;;;;;;5064833;28;20111;-76
2023/10/12 00:07:16;;;;;;;0.57;0.57;;;14.40;99.90;;;;;;5068414;28;20384;-76
2023/10/12 00:09:49;;;;;;;0.43;0.43;;;14.40;99.90;;;;;;5068692;28;20045;-75
2023/10/12 00:12:24;;;;;;;0.38;0.38;;;14.30;99.90;;;;;;5054932;28;20486;-76
2023/10/12 00:14:54;;;;;;;0.40;0.40;;;14.30;99.90;;;;;;5056081;28;20052;-76
2023/10/12 00:17:20;;;;;;;0.40;0.40;;;14.30;99.90;;;;;;5046844;28;20390;-76
2023/10/12 00:19:46;;;;;;;0.40;0.40;;;14.30;99.90;;;;;;5059617;28;20123;-74
2023/10/12 00:22:14;;;;;;;0.32;0.32;;;14.20;99.90;;;;;;5072112;28;20123;-74
2023/10/12 00:24:39;;;;;;;0.30;0.30;;;14.20;99.90;;;;;;5060975;28;20085;-74
2023/10/12 00:27:17;;;;;;;0.30;0.30;;;14.20;99.90;;;;;;5066508;28;20040;-75
2023/10/12 00:29:44;;;;;;;0.35;0.35;;;14.20;99.90;;;;;;5055314;28;20097;-74
2023/10/12 00:32:10;;;;;;;0.40;0.40;;;14.10;99.90;;;;;;5061065;28;20131;-74
2023/10/12 00:34:47;;;;;;;0.73;0.73;;;14.10;99.90;;;;;;5060776;28;20548;-75
2023/10/12 00:37:14;;;;;;;0.40;0.40;;;14.10;99.90;;;;;;5047229;28;20036;-75
2023/10/12 00:42:19;;;;;;;0.40;0.40;;;14.10;99.90;;;;;;5066047;28;20048;-73
2023/10/12 00:44:52;;;;;;;0.32;0.32;;;14.10;99.90;;;;;;5035375;28;20040;-75
2023/10/12 00:50:11;;;;;;;0.40;0.40;;;14.00;99.90;;;;;;5057929;28;20040;-75
2023/10/12 00:52:57;;;;;;;0.40;0.40;;;14.00;99.90;;;;;;5046215;28;20415;-75
2023/10/12 00:55:45;;;;;;;0.38;0.38;;;14.00;99.90;;;;;;5041733;28;20041;-75
2023/10/12 00:58:10;;;;;;;0.40;0.40;;;14.00;99.90;;;;;;5068465;28;20071;-74
2023/10/12 01:00:43;;;;;;;0.30;0.30;;;13.90;99.90;;;;;;5059640;28;20121;-74
2023/10/12 01:08:46;;;;;;;0.30;0.30;;;13.90;99.90;;;;;;5046927;28;20040;-74
2023/10/12 01:11:26;;;;;;;0.40;0.40;;;13.90;99.90;;;;;;5059601;28;20119;-75
2023/10/12 01:14:17;;;;;;;0.40;0.40;;;13.90;99.90;;;;;;5063120;28;20047;-74
2023/10/12 01:16:54;;;;;;;0.40;0.40;;;13.90;99.90;;;;;;5064460;28;20044;-73
2023/10/12 01:19:23;;;;;;;0.30;0.30;;;13.80;99.90;;;;;;5058060;28;20041;-75
2023/10/12 01:21:55;;;;;;;0.43;0.43;;;13.80;99.90;;;;;;5050496;28;20076;-75
2023/10/12 01:24:30;;;;;;;0.40;0.40;;;13.80;99.90;;;;;;5041839;28;20410;-74
2023/10/12 01:26:56;;;;;;;0.70;0.70;;;13.80;99.90;;;;;;5065789;28;20036;-72
2023/10/12 01:29:25;;;;;;;0.30;0.30;;;13.80;99.90;;;;;;5039897;28;20055;-75
2023/10/12 01:34:40;;;;;;;0.40;0.40;;;13.80;99.90;;;;;;5061488;28;20061;-74
2023/10/12 01:37:20;;;;;;;0.40;0.40;;;13.80;99.90;;;;;;5058116;28;20050;-75
2023/10/12 01:39:55;;;;;;;0.40;0.40;;;13.80;99.90;;;;;;5066786;28;20629;-73
2023/10/12 01:42:21;;;;;;;0.40;0.40;;;13.70;99.90;;;;;;5064684;28;20501;-74
2023/10/12 01:44:48;;;;;;;0.30;0.30;;;13.70;99.90;;;;;;5052367;28;20153;-74
2023/10/12 01:47:15;;;;;;;0.37;0.37;;;13.70;99.90;;;;;;5045548;28;20035;-74
2023/10/12 01:49:45;;;;;;;0.50;0.50;;;13.70;99.90;;;;;;5060811;28;20373;-73
2023/10/12 01:52:11;;;;;;;0.40;0.40;;;13.60;99.90;;;;;;5067845;28;20049;-74
2023/10/12 01:54:42;;;;;;;0.40;0.40;;;13.60;99.90;;;;;;5056503;28;20041;-74
2023/10/12 01:57:09;;;;;;;0.32;0.32;;;13.60;99.90;;;;;;5075455;28;20043;-74
2023/10/12 01:59:38;;;;;;;0.30;0.30;;;13.50;99.90;;;;;;5038733;28;20044;-75
2023/10/12 02:02:08;;;;;;;0.30;0.30;;;13.50;99.90;;;;;;5071052;28;20476;-74
2023/10/12 02:04:39;;;;;;;0.40;0.40;;;13.50;99.90;;;;;;5060625;28;20082;-74
2023/10/12 02:07:05;;;;;;;0.40;0.40;;;13.50;99.90;;;;;;5062773;28;20070;-74
2023/10/12 02:09:34;;;;;;;0.30;0.30;;;13.50;99.90;;;;;;5062794;28;20036;-74
2023/10/12 02:12:09;;;;;;;0.40;0.40;;;13.50;99.90;;;;;;5058770;28;20054;-75
2023/10/12 02:14:39;;;;;;;0.30;0.30;;;13.50;99.90;;;;;;5058713;28;20049;-74
2023/10/12 02:17:06;;;;;;;0.32;0.32;;;13.50;99.90;;;;;;5043529;28;20063;-75
2023/10/12 02:19:55;;;;;;;0.40;0.40;;;13.50;99.90;;;;;;5071718;28;20043;-74
2023/10/12 02:22:19;;;;;;;0.40;0.40;;;13.50;99.90;;;;;;5061807;28;20486;-73
2023/10/12 02:24:50;;;;;;;0.40;0.40;;;13.50;99.90;;;;;;5068946;28;20073;-74
2023/10/12 02:27:17;;;;;;;0.40;0.40;;;13.50;99.90;;;;;;5065525;28;20032;-74
2023/10/12 02:29:48;;;;;;;0.40;0.40;;;13.60;99.90;;;;;;5063334;28;20037;-72
2023/10/12 02:32:23;;;;;;;0.50;0.50;;;13.50;99.90;;;;;;5069515;28;20055;-74
2023/10/12 02:34:55;;;;;;;0.40;0.40;;;13.50;99.90;;;;;;5057893;28;20405;-74
2023/10/12 02:37:24;;;;;;;0.30;0.30;;;13.50;99.90;;;;;;5038922;28;20041;-75
2023/10/12 02:39:53;;;;;;;0.40;0.40;;;13.40;99.90;;;;;;5069244;28;20040;-74
2023/10/12 02:42:22;;;;;;;0.30;0.30;;;13.40;99.90;;;;;;5063623;28;20036;-74
2023/10/12 02:47:23;;;;;;;0.40;0.40;;;13.40;99.90;;;;;;5065082;28;20522;-74
2023/10/12 02:50:00;;;;;;;0.65;0.65;;;13.30;99.90;;;;;;5062400;28;20043;-74
2023/10/12 02:52:27;;;;;;;0.40;0.40;;;13.30;99.90;;;;;;5059811;28;20044;-74
2023/10/12 02:54:56;;;;;;;0.47;0.47;;;13.30;99.90;;;;;;5062131;28;20079;-74
2023/10/12 02:57:23;;;;;;;;;;;13.20;99.90;;;;;;5059729;28;20040;-75
2023/10/12 02:59:57;;;;;;;0.40;0.40;;;13.20;99.90;;;;;;5051911;28;20019;-74
2023/10/12 03:02:32;;;;;;;0.40;0.40;;;13.20;99.90;;;;;;5062888;28;20302;-75
2023/10/12 03:05:02;;;;;;;0.47;0.47;;;13.20;99.90;;;;;;5057992;28;20029;-74
2023/10/12 03:07:28;;;;;;;0.40;0.40;;;13.20;99.90;;;;;;5063308;28;20116;-72
2023/10/12 03:09:58;;;;;;;0.40;0.40;;;13.20;99.90;;;;;;5046964;28;20159;-75
2023/10/12 03:12:26;;;;;;;0.40;0.40;;;13.20;99.90;;;;;;5043693;28;20146;-75
2023/10/12 03:14:52;;;;;;;0.95;0.95;;;13.20;99.90;;;;;;5045741;28;20044;-75
2023/10/12 03:17:19;;;;;;;0.40;0.40;;;13.20;99.90;;;;;;5045602;28;20121;-74
2023/10/12 03:19:55;;;;;;;0.45;0.45;;;13.20;99.90;;;;;;5051432;28;20094;-75
2023/10/12 03:22:32;;;;;;;0.40;0.40;;;13.20;99.90;;;;;;5060969;28;20403;-75
2023/10/12 03:25:05;;;;;;;0.40;0.40;;;13.20;99.90;;;;;;5064100;28;20036;-75
2023/10/12 03:27:33;;;;;;;0.40;0.40;;;13.10;99.90;;;;;;5084250;28;20041;-74
2023/10/12 03:30:09;;;;;;;0.40;0.40;;;13.10;99.90;;;;;;5046076;28;20059;-75
2023/10/12 03:32:35;;;;;;;0.50;0.50;;;13.10;99.90;;;;;;5045743;28;20051;-74
2023/10/12 03:35:04;;;;;;;0.40;0.40;;;13.10;99.90;;;;;;5060727;28;20048;-72
2023/10/12 03:37:45;;;;;;;0.30;0.30;;;13.10;99.90;;;;;;5046379;28;20080;-75
2023/10/12 03:42:55;;;;;;;0.40;0.40;;;13.10;99.90;;;;;;5052066;28;20047;-75
2023/10/12 03:45:34;;;;;;;0.40;0.40;;;13.10;99.90;;;;;;5056638;28;20714;-75
2023/10/12 03:48:21;;;;;;;0.40;0.40;;;13.10;99.90;;;;;;5041825;28;20502;-74
2023/10/12 03:50:59;;;;;;;0.50;0.50;;;13.00;99.90;;;;;;5045900;28;20055;-75
2023/10/12 03:53:31;;;;;;;0.50;0.50;;;13.00;99.90;;;;;;5066231;28;20036;-75
2023/10/12 03:55:58;;;;;;;0.50;0.50;;;13.00;99.90;;;;;;5060060;28;20068;-76
2023/10/12 03:58:24;;;;;;;0.30;0.30;;;13.00;99.90;;;;;;5066121;28;20041;-75
2023/10/12 04:01:10;;;;;;;1.05;0.77;;;13.00;99.90;;;;;;5043679;28;20044;-73
2023/10/12 04:03:38;;;;;;;0.30;0.30;;;13.00;99.90;;;;;;5060088;28;20091;-75
2023/10/12 04:06:15;;;;;;;0.40;0.40;;;12.90;99.90;;;;;;5058608;28;20045;-75
2023/10/12 04:08:49;;;;;;;0.30;0.30;;;12.90;99.90;;;;;;5068636;28;20048;-75
2023/10/12 04:21:17;;;;;;;0.40;0.40;;;12.90;99.90;;;;;;5055026;28;20045;-75
2023/10/12 04:28:42;;;;;;;0.40;0.40;;;12.90;99.90;;;;;;5058127;28;20037;-76
2023/10/12 04:37:08;;;;;;;0.30;0.30;;;12.90;99.90;;;;;;5057341;28;20049;-73
2023/10/12 04:47:03;;;;;;;0.30;0.30;;;12.90;99.90;;;;;;5066346;28;20048;-74
2023/10/12 04:52:40;;;;;;;0.32;0.32;;;12.90;99.90;;;;;;5062488;28;20048;-75
2023/10/12 04:57:32;;;;;;;0.50;0.50;;;12.90;99.90;;;;;;5055620;28;20117;-75
2023/10/12 05:00:24;;;;;;;0.50;0.50;;;12.90;99.90;;;;;;5042140;28;20045;-75
2023/10/12 05:07:58;;;;;;;0.43;0.43;;;12.90;99.90;;;;;;5037398;28;20033;-75
2023/10/12 05:10:31;;;;;;;;;;;12.90;99.90;;;;;;5037183;28;20116;-76
2023/10/12 05:13:04;;;;;;;0.40;0.40;;;12.90;99.90;;;;;;5020716;28;19998;-74
2023/10/12 05:15:42;;;;;;;0.50;0.50;;;12.90;99.90;;;;;;5021003;28;20041;-75
2023/10/12 05:18:08;;;;;;;0.30;0.30;;;12.90;99.90;;;;;;5038114;28;20047;-75
2023/10/12 05:20:34;;;;;;;0.30;0.30;;;12.80;99.90;;;;;;5016264;28;20120;-75
2023/10/12 05:23:02;;;;;;;0.50;0.50;;;12.90;99.90;;;;;;5041390;28;20254;-75
2023/10/12 05:25:47;;;;;;;0.40;0.40;;;12.90;99.90;;;;;;5015082;28;20047;-75
2023/10/12 05:28:31;;;;;;;0.30;0.30;;;12.90;99.90;;;;;;5028581;28;20045;-75
2023/10/12 05:31:09;;;;;;;0.40;0.40;;;12.90;99.90;;;;;;5039094;28;20475;-75
2023/10/12 05:36:10;;;;;;;0.40;0.40;;;12.90;99.90;;;;;;5032224;28;21456;-75
2023/10/12 05:38:40;;;;;;;0.30;0.30;;;12.90;99.90;;;;;;5027879;28;20041;-74
2023/10/12 05:41:11;;;;;;;0.40;0.40;;;12.90;99.90;;;;;;5023547;28;20029;-74
2023/10/12 05:43:39;;;;;;;0.30;0.30;;;12.80;99.90;;;;;;5042711;28;20398;-74
2023/10/12 05:46:15;;;;;;;0.32;0.32;;;12.80;99.90;;;;;;5041892;28;20163;-74
2023/10/12 05:48:45;;;;;;;0.40;0.40;;;12.80;99.90;;;;;;5026382;28;20134;-74
2023/10/12 05:51:19;;;;;;;0.40;0.40;;;12.80;99.90;;;;;;5019106;28;20041;-75
2023/10/12 05:53:45;;;;;;;0.40;0.40;;;12.80;99.90;;;;;;5027573;28;20478;-75
2023/10/12 05:56:12;;;;;;;0.32;0.32;;;12.90;99.90;;;;;;5040784;28;20041;-73
2023/10/12 05:58:38;;;;;;;0.43;0.43;;;12.90;99.90;;;;;;5036960;28;20045;-73
2023/10/12 06:01:12;;;;;;;0.70;0.70;;;12.90;99.90;;;;;;5047067;28;20036;-75
2023/10/12 06:03:46;;;;;;;0.50;0.50;;;12.90;99.90;;;;;;5041611;28;20051;-75
2023/10/12 06:06:12;;;;;;;0.40;0.40;;;12.90;99.90;;;;;;5041197;28;20241;-75
2023/10/12 06:08:40;;;;;;;0.40;0.40;;;12.80;99.90;;;;;;5036497;28;20549;-75
2023/10/12 06:11:10;;;;;;;0.40;0.40;;;12.80;99.90;;;;;;5062309;28;20037;-74
2023/10/12 06:13:42;;;;;;;0.40;0.40;;;12.80;99.90;;;;;;5046637;28;20294;-75
2023/10/12 06:16:28;;;;;;;0.40;0.40;;;12.80;99.90;;;;;;5052139;28;21023;-74
2023/10/12 06:18:54;;;;;;;0.68;0.68;;;12.80;99.90;;;;;;5038161;28;20044;-74
2023/10/12 06:21:20;;;;;;;0.70;0.70;;;12.80;99.90;;;;;;5044472;28;20409;-74
2023/10/12 06:23:50;;;;;;;0.40;0.40;;;12.70;99.90;;;;;;5055464;28;20035;-75
2023/10/12 06:26:28;;;;;;;0.38;0.38;;;12.70;99.90;;;;;;5062732;28;20543;-75
2023/10/12 06:29:00;;;;;;;0.40;0.40;;;12.70;99.90;;;;;;5052801;28;20146;-75
2023/10/12 06:31:30;;;;;;;0.50;0.50;;;12.70;99.90;;;;;;5054066;28;20048;-74
2023/10/12 06:33:59;;;;;;;0.40;0.40;;;12.70;99.90;;;;;;5037922;28;20293;-74
2023/10/12 06:36:37;;;;;;;0.40;0.40;;;12.70;99.90;;;;;;5040092;28;20047;-74
2023/10/12 06:44:13;;;;;;;0.30;0.30;;;12.60;99.90;;;;;;5056542;28;20646;-75
2023/10/12 06:46:46;;;;;;;0.47;0.47;;;12.60;99.90;;;;;;5043637;28;20828;-75
2023/10/12 06:49:33;;;;;;;0.40;0.40;;;12.50;99.90;;;;;;5037095;28;20041;-75
2023/10/12 06:52:01;;;;;;;0.40;0.40;;;12.50;99.90;;;;;;5062217;28;20040;-73
2023/10/12 06:59:52;;;;;;;0.40;0.40;;;12.40;99.90;;;;;;5055018;28;20043;-75
2023/10/12 07:02:24;;;;;;;0.30;0.30;;;12.40;99.90;;;;;;5036982;28;20208;-75
2023/10/12 07:05:02;;;;;;;0.43;0.43;;;12.40;99.90;;;;;;5035197;28;20080;-74
2023/10/12 07:07:30;;;;;;;0.40;0.40;;;12.40;99.90;;;;;;5054622;28;20440;-74
2023/10/12 07:12:43;;;;;;;0.38;0.38;;;12.40;99.90;;;;;;5061852;28;20044;-74
2023/10/12 07:15:23;;;;;;;0.30;0.30;;;12.40;99.90;;;;;;5058454;28;20063;-74
2023/10/12 07:17:50;;;;;;;0.40;0.40;;;12.40;99.90;;;;;;5050449;28;20037;-74
2023/10/12 07:20:29;;;;;;;0.32;0.32;;;12.40;99.90;;;;;;5059834;28;20494;-73
2023/10/12 07:22:55;;;;;;;0.40;0.40;;;12.40;99.90;;;;;;5061394;28;20080;-75
2023/10/12 07:25:22;;;;;;;0.47;0.47;;;12.40;99.90;;;;;;5058191;28;20040;-75
2023/10/12 07:27:58;;;;;;;0.40;0.40;;;12.40;99.90;;;;;;5062444;28;20033;-75
2023/10/12 07:30:33;;;;;;;0.35;0.35;;;12.40;99.90;;;;;;5039197;28;20470;-73
2023/10/12 07:33:04;;;;;;;0.40;0.40;;;12.50;99.90;;;;;;5039745;28;20048;-75
2023/10/12 07:35:38;;;;;;;0.40;0.40;;;12.50;99.90;;;;;;5053176;28;20083;-75
2023/10/12 07:38:28;;;;;;;0.40;0.40;;;12.50;99.90;;;;;;5060636;28;20406;-75
2023/10/12 07:40:56;;;;;;;0.43;0.43;;;12.50;99.90;;;;;;5047128;28;20052;-75
2023/10/12 07:43:24;;;;;;;0.40;0.40;;;12.60;99.90;;;;;;5058032;28;20033;-75
2023/10/12 07:45:50;;;;;;;0.30;0.30;;;12.60;99.90;;;;;;5047678;28;20393;-74
2023/10/12 07:48:40;;;;;;;0.52;0.52;;;12.60;99.90;;;;;;5042920;28;20047;-72
2023/10/12 07:51:26;;;;;;;0.40;0.40;;;12.60;99.90;;;;;;5048636;28;20513;-74
2023/10/12 07:54:24;;;;;;;0.40;0.40;;;12.70;99.90;;;;;;5067784;28;20033;-74
2023/10/12 07:56:47;;;;;;;0.30;0.30;;;12.70;99.90;;;;;;5057856;28;20118;-74
2023/10/12 07:59:16;;;;;;;0.40;0.40;;;12.80;99.90;;;;;;5038417;28;20483;-74
2023/10/12 08:01:50;;;;;;;0.40;0.40;;;12.90;99.90;;;;;;5054763;28;20132;-74
2023/10/12 08:04:32;;;;;;;0.35;0.35;;;13.00;99.90;;;;;;5055465;28;20028;-74
2023/10/12 08:06:59;;;;;;;0.50;0.50;;;13.10;99.90;;;;;;5038608;28;20029;-74
2023/10/12 08:11:51;;;;;;;0.30;0.30;;;13.30;99.90;;;;;;5055777;28;20126;-75
2023/10/12 08:19:42;;;;;;;0.40;0.40;;;13.50;99.90;;;;;;5055994;28;20056;-74
2023/10/12 08:22:25;;;;;;;0.50;0.50;;;13.60;99.90;;;;;;5055020;28;20071;-74
2023/10/12 08:24:53;;;;;;;0.68;0.68;;;13.60;99.90;;;;;;5054661;28;20037;-74
2023/10/12 08:27:19;;;;;;;0.30;0.30;;;13.70;99.90;;;;;;5038484;28;20344;-72
2023/10/12 08:32:12;;;;;;;0.35;0.35;;;13.80;99.90;;;;;;5056046;28;20094;-74
2023/10/12 08:37:17;;;;;;;0.40;0.40;;;14.00;99.90;;;;;;5054009;28;20550;-75
2023/10/12 08:45:15;;;;;;;0.40;0.40;;;14.20;99.90;;;;;;5051085;28;20052;-75
2023/10/12 08:47:48;;;;;;;0.40;0.40;;;14.20;99.90;;;;;;5061705;28;20434;-74
2023/10/12 08:52:50;;;;;;;0.30;0.30;;;14.40;99.90;;;;;;5057264;28;20049;-74
2023/10/12 08:55:24;;;;;;;0.40;0.40;;;14.40;99.90;;;;;;5042349;28;20099;-74
2023/10/12 08:58:11;;;;;;;0.40;0.40;;;14.50;99.90;;;;;;5057610;28;20045;-74
2023/10/12 09:01:07;;;;;;;0.40;0.40;;;14.50;99.90;;;;;;5063728;28;20032;-74
2023/10/12 09:03:46;;;;;;;0.50;0.50;;;14.60;99.90;;;;;;5063300;28;20048;-74
2023/10/12 09:12:01;;;;;;;0.38;0.38;;;14.70;99.90;;;;;;4990915;28;20045;-74
2023/10/12 09:14:26;;;;;;;0.40;0.40;;;14.80;99.90;;;;;;5013974;28;20494;-74
2023/10/12 09:16:54;;;;;;;0.40;0.40;;;14.80;99.90;;;;;;5065493;28;20513;-74
2023/10/12 09:19:28;;;;;;;0.40;0.40;;;14.90;99.90;;;;;;5039490;28;20033;-72
2023/10/12 09:21:59;;;;;;;0.40;0.40;;;15.00;99.90;;;;;;5036050;28;20717;-74
2023/10/12 09:24:28;;;;;;;0.30;0.30;;;15.00;99.90;;;;;;5058844;28;20204;-74
2023/10/12 09:26:59;;;;;;;0.30;0.30;;;15.10;99.90;;;;;;5033135;28;20040;-74
2023/10/12 09:29:28;;;;;;;0.30;0.30;;;15.20;99.90;;;;;;5039547;28;20372;-75
2023/10/12 09:32:23;;;;;;;0.30;0.30;;;15.20;99.90;;;;;;5058363;28;20045;-72
2023/10/12 09:37:43;;;;;;;0.40;0.40;;;15.40;99.90;;;;;;5058333;28;20069;-72
2023/10/12 09:43:17;;;;;;;0.40;0.40;;;15.60;99.90;;;;;;4974242;28;20046;-72
2023/10/12 09:45:45;;;;;;;0.30;0.30;;;15.70;99.90;;;;;;4990276;28;20030;-73
2023/10/12 09:48:24;;;;;;;0.30;0.30;;;15.80;99.90;;;;;;5019753;28;20052;-72
2023/10/12 09:50:52;;;;;;;0.30;0.30;;;15.90;99.90;;;;;;5041169;28;20136;-73
2023/10/12 09:53:26;;;;;;;0.40;0.40;;;15.90;99.90;;;;;;5041655;28;20043;-72
2023/10/12 09:56:11;;;;;;;0.30;0.30;;;16.00;99.90;;;;;;5051190;28;20041;-73
2023/10/12 09:58:45;;;;;;;0.30;0.30;;;16.00;99.90;;;;;;5060444;28;20037;-73
2023/10/12 10:01:22;;;;;;;0.30;0.30;;;16.20;99.90;;;;;;5048083;28;20121;-73
2023/10/12 10:03:49;;;;;;;0.20;0.20;;;16.20;99.90;;;;;;5043229;28;20047;-73
2023/10/12 10:06:28;;;;;;;0.40;0.40;;;16.30;99.90;;;;;;5047994;28;20047;-72
2023/10/12 10:09:56;;;;;;;0.35;0.35;;;16.40;99.90;;;;;;5054981;28;20464;-72
2023/10/12 10:11:58;;;;;;;0.40;0.40;;;16.40;99.90;;;;;;5041337;28;20051;-70
2023/10/12 10:14:26;;;;;;;0.40;0.40;;;16.50;99.90;;;;;;5062768;28;20177;-73
2023/10/12 10:16:58;;;;;;;0.30;0.30;;;16.60;99.90;;;;;;5065140;28;20047;-70
2023/10/12 10:19:29;;;;;;;0.30;0.30;;;16.60;99.90;;;;;;5065501;28;20044;-72
2023/10/12 10:22:05;;;;;;;0.40;0.40;;;16.60;99.90;;;;;;5061475;28;20091;-71
2023/10/12 10:24:58;;;;;;;0.40;0.40;;;16.70;99.90;;;;;;5043577;28;20049;-72
2023/10/12 10:27:34;;;;;;;0.40;0.40;;;16.70;99.90;;;;;;5046691;28;20040;-72
2023/10/12 10:30:23;;;;;;;0.40;0.40;;;16.80;99.90;;;;;;5063013;28;20502;-72
2023/10/12 10:33:17;;;;;;;0.35;0.35;;;16.80;99.90;;;;;;5062636;28;20400;-72
2023/10/12 10:35:58;;;;;;;0.40;0.40;;;16.70;99.90;;;;;;5049490;28;20052;-73
2023/10/12 10:38:30;;;;;;;0.30;0.30;;;16.70;99.90;;;;;;5060940;28;20040;-73
2023/10/12 10:41:05;;;;;;;0.50;0.50;;;16.60;99.90;;;;;;5056042;28;20058;-72
2023/10/12 10:43:39;;;;;;;0.40;0.40;;;16.70;99.90;;;;;;5051268;28;20513;-73
2023/10/12 10:46:09;;;;;;;0.30;0.30;;;16.70;99.90;;;;;;5061559;28;20042;-72
2023/10/12 10:48:37;;;;;;;0.30;0.30;;;16.70;99.90;;;;;;5046699;28;20086;-72
2023/10/12 10:51:07;;;;;;;0.30;0.30;;;16.70;99.90;;;;;;5058429;28;20094;-72
2023/10/12 10:53:36;;;;;;;0.45;0.45;;;16.70;99.90;;;;;;5065305;28;20044;-72
2023/10/12 10:56:13;;;;;;;0.38;0.38;;;16.70;99.90;;;;;;5047208;28;20158;-72
2023/10/12 10:58:40;;;;;;;0.40;0.40;;;16.70;99.90;;;;;;5061718;28;20040;-72
2023/10/12 11:01:15;;;;;;;0.57;0.57;;;16.60;99.90;;;;;;5060651;28;20045;-72
2023/10/12 11:03:46;;;;;;;0.40;0.40;;;16.60;99.90;;;;;;5068886;28;20414;-71
2023/10/12 11:06:23;;;;;;;0.40;0.40;;;16.60;99.90;;;;;;5054851;28;20036;-71
2023/10/12 11:09:02;;;;;;;0.30;0.30;;;16.70;99.90;;;;;;5057334;28;20037;-72
2023/10/12 11:11:37;;;;;;;0.38;0.38;;;16.60;99.90;;;;;;5056869;28;20050;-72
2023/10/12 11:14:04;;;;;;;0.30;0.30;;;16.60;99.90;;;;;;5059995;28;20097;-72
2023/10/12 11:16:30;;;;;;;0.40;0.40;;;16.60;99.90;;;;;;5059445;28;20047;-72
2023/10/12 11:18:57;;;;;;;0.40;0.40;;;16.60;99.90;;;;;;5058663;28;20040;-73
2023/10/12 11:21:27;;;;;;;0.30;0.30;;;16.60;99.90;;;;;;5061037;28;20066;-72
2023/10/12 11:24:01;;;;;;;0.30;0.30;;;16.60;99.90;;;;;;5060167;28;20044;-73
2023/10/12 11:26:28;;;;;;;0.40;0.40;;;16.60;99.90;;;;;;5064666;28;20089;-73
2023/10/12 11:29:07;;;;;;;0.40;0.40;;;16.70;99.90;;;;;;5042408;28;20131;-71
2023/10/12 11:31:36;;;;;;;0.30;0.30;;;16.60;99.90;;;;;;5062143;28;20051;-70
2023/10/12 11:34:11;;;;;;;0.40;0.40;;;16.60;99.90;;;;;;5057221;28;20577;-70
2023/10/12 11:36:38;;;;;;;0.32;0.32;;;16.50;99.90;;;;;;5043613;28;20400;-70
2023/10/12 11:39:17;;;;;;;0.68;0.68;;;16.50;99.90;;;;;;5038207;28;20039;-72
2023/10/12 11:42:06;;;;;;;0.68;0.63;;;16.30;99.90;;;;;;5059986;28;20033;-71
2023/10/12 11:44:45;;;;;;;0.40;0.40;;;16.30;99.90;;;;;;5045578;28;20040;-71
2023/10/12 11:47:17;;;;;;;0.40;0.40;;;16.10;99.90;;;;;;5061273;28;20182;-72
2023/10/12 11:49:55;;;;;;;0.40;0.40;;;16.10;99.90;;;;;;5044261;28;20399;-72
2023/10/12 11:52:33;;;;;;;0.40;0.40;;;16.10;99.90;;;;;;5060901;28;20068;-72
2023/10/12 11:55:19;;;;;;;0.30;0.30;;;16.10;99.90;;;;;;5067089;28;20382;-71
2023/10/12 11:57:54;;;;;;;0.40;0.40;;;16.10;99.90;;;;;;5076701;28;20039;-72
2023/10/12 12:00:21;;;;;;;3.75;1.40;;;16.10;99.90;;;;;;5048377;28;20033;-73
2023/10/12 12:02:53;;;;;;;0.40;0.40;;;16.10;99.90;;;;;;5051464;28;20131;-74
2023/10/12 12:05:22;;;;;;;0.40;0.40;;;16.10;99.90;;;;;;5041996;28;20514;-73
2023/10/12 12:07:51;;;;;;;0.40;0.40;;;16.10;99.90;;;;;;5063228;28;20040;-74
2023/10/12 12:10:38;;;;;;;0.40;0.40;;;16.20;99.90;;;;;;5058046;28;20502;-74
2023/10/12 12:13:08;;;;;;;0.30;0.30;;;16.20;99.90;;;;;;5042857;28;20035;-73
2023/10/12 12:15:34;;;;;;;0.40;0.40;;;16.20;99.90;;;;;;5045339;28;20048;-73
2023/10/12 12:17:59;;;;;;;0.30;0.30;;;16.20;99.90;;;;;;5049487;28;20125;-73
2023/10/12 12:20:25;;;;;;;1.33;1.02;;;16.10;99.90;;;;;;5041484;28;20059;-73
2023/10/12 12:22:57;;;;;;;0.40;0.40;;;16.20;99.90;;;;;;5062169;28;20028;-73
2023/10/12 12:25:32;;;;;;;0.30;0.30;;;16.10;99.90;;;;;;5056272;28;20048;-73
2023/10/12 12:28:04;;;;;;;0.32;0.32;;;16.10;99.90;;;;;;5065272;28;20077;-73
2023/10/12 12:30:34;;;;;;;0.30;0.30;;;16.10;99.90;;;;;;5068317;28;20055;-73
2023/10/12 12:33:03;;;;;;;0.40;0.40;;;16.10;99.90;;;;;;5046579;28;20119;-73
2023/10/12 12:35:32;;;;;;;0.50;0.45;;;16.10;99.90;;;;;;5059852;28;20044;-72
2023/10/12 12:38:00;;;;;;;0.60;0.60;;;16.00;99.90;;;;;;5054783;28;20047;-72
2023/10/12 12:40:30;;;;;;;0.30;0.30;;;16.00;99.90;;;;;;5062141;28;20032;-72
2023/10/12 12:42:57;;;;;;;0.50;0.50;;;16.00;99.90;;;;;;5060572;28;20043;-72
2023/10/12 12:45:23;;;;;;;1.10;1.00;;;15.90;99.90;;;;;;5060815;28;20291;-72
2023/10/12 12:47:49;;;;;;;0.40;0.40;;;15.80;99.90;;;;;;5063538;28;20051;-73
2023/10/12 12:50:14;;;;;;;0.50;0.50;;;15.80;99.90;;;;;;5059474;28;20036;-73
2023/10/12 12:52:46;;;;;;;0.43;0.43;;;15.70;99.90;;;;;;5044127;28;20044;-73
2023/10/12 12:55:16;;;;;;;0.40;0.40;;;15.60;99.90;;;;;;5056276;28;20049;-73
2023/10/12 12:57:46;;;;;;;0.30;0.30;;;15.60;99.90;;;;;;5063914;28;20093;-73
2023/10/12 13:00:19;;;;;;;0.60;0.60;;;15.60;99.90;;;;;;5064685;28;20048;-73
2023/10/12 13:02:46;;;;;;;0.40;0.40;;;15.60;99.90;;;;;;5059681;28;20060;-73
2023/10/12 13:05:12;;;;;;;0.40;0.40;;;15.60;99.90;;;;;;5057593;28;20490;-73
2023/10/12 13:07:38;;;;;;;0.52;0.52;;;15.60;99.90;;;;;;5058026;28;20055;-73
2023/10/12 13:10:06;;;;;;;0.40;0.40;;;15.60;99.90;;;;;;5067145;28;20044;-73
2023/10/12 13:12:32;;;;;;;0.30;0.30;;;15.60;99.90;;;;;;5057540;28;20056;-72
2023/10/12 13:15:01;;;;;;;0.30;0.30;;;15.50;99.90;;;;;;5068672;28;20036;-72
2023/10/12 13:17:30;;;;;;;0.30;0.30;;;15.50;99.90;;;;;;5063709;28;20063;-72
2023/10/12 13:19:59;;;;;;;0.40;0.40;;;15.50;99.90;;;;;;5063764;28;20481;-72
2023/10/12 13:22:26;;;;;;;0.40;0.40;;;15.50;99.90;;;;;;5065038;28;20438;-72
2023/10/12 13:24:56;;;;;;;0.52;0.52;;;15.40;99.90;;;;;;5059147;28;20044;-72
2023/10/12 13:27:32;;;;;;;0.30;0.30;;;15.40;99.90;;;;;;5058725;28;20079;-72
2023/10/12 13:30:09;;;;;;;0.40;0.40;;;15.40;99.90;;;;;;5068740;28;20051;-72
2023/10/12 13:32:38;;;;;;;0.35;0.35;;;15.40;99.90;;;;;;5045498;28;20044;-73
2023/10/12 13:37:49;;;;;;;0.32;0.32;;;15.30;99.90;;;;;;5060779;28;20100;-72
2023/10/12 13:40:17;;;;;;;0.40;0.40;;;15.30;99.90;;;;;;5062389;28;20589;-73
2023/10/12 13:42:46;;;;;;;0.30;0.30;;;15.20;99.90;;;;;;5045197;28;20040;-73
2023/10/12 13:45:18;;;;;;;0.40;0.40;;;15.20;99.90;;;;;;5055089;28;20044;-73
2023/10/12 13:47:47;;;;;;;0.30;0.30;;;15.20;99.90;;;;;;5052163;28;20040;-73
2023/10/12 13:50:14;;;;;;;0.43;0.43;;;15.10;99.90;;;;;;5039300;28;20131;-74
2023/10/12 13:52:41;;;;;;;0.63;0.63;;;15.10;99.90;;;;;;5064782;28;20075;-73
2023/10/12 13:55:14;;;;;;;0.50;0.50;;;15.10;99.90;;;;;;5064735;28;20048;-74
2023/10/12 13:57:55;;;;;;;0.50;0.50;;;15.10;99.90;;;;;;5056525;28;20064;-74
2023/10/12 14:00:30;;;;;;;0.40;0.40;;;15.00;99.90;;;;;;5057218;28;20071;-73
2023/10/12 14:02:58;;;;;;;0.50;0.50;;;14.90;99.90;;;;;;5059430;28;20056;-73
2023/10/12 14:05:27;;;;;;;0.30;0.30;;;14.80;99.90;;;;;;5060126;28;20040;-73
2023/10/12 14:07:59;;;;;;;0.30;0.30;;;14.80;99.90;;;;;;5056889;28;20043;-73
2023/10/12 14:10:29;;;;;;;0.40;0.40;;;14.80;99.90;;;;;;5057179;28;20048;-73
2023/10/12 14:12:56;;;;;;;0.43;0.43;;;14.70;99.90;;;;;;5043929;28;20036;-72
2023/10/12 14:15:27;;;;;;;0.30;0.30;;;14.70;99.90;;;;;;5061047;28;20397;-72
2023/10/12 14:17:58;;;;;;;0.30;0.30;;;14.70;99.90;;;;;;5056540;28;20037;-73
2023/10/12 14:20:26;;;;;;;0.35;0.35;;;14.70;99.90;;;;;;5057773;28;20048;-72
2023/10/12 14:22:54;;;;;;;;;;;14.70;99.90;;;;;;5051234;28;20043;-74
2023/10/12 14:25:27;;;;;;;0.40;0.40;;;14.70;99.90;;;;;;5063003;28;20304;-80
2023/10/12 14:27:53;;;;;;;0.40;0.40;;;14.60;99.90;;;;;;5041266;28;20120;-74
2023/10/12 14:30:25;;;;;;;0.50;0.50;;;14.60;99.90;;;;;;5034335;28;20127;-72
2023/10/12 14:32:51;;;;;;;0.40;0.40;;;14.60;99.90;;;;;;5054829;28;20041;-73
2023/10/12 14:35:18;;;;;;;0.50;0.50;;;14.60;99.90;;;;;;5066036;28;20097;-73
2023/10/12 14:37:44;;;;;;;0.47;0.47;;;14.50;99.90;;;;;;5059632;28;20126;-73
2023/10/12 14:40:19;;;;;;;0.30;0.30;;;14.50;99.90;;;;;;5062504;28;20389;-73
2023/10/12 14:42:45;;;;;;;0.40;0.40;;;14.50;99.90;;;;;;5054931;28;20071;-75
2023/10/12 14:45:15;;;;;;;0.40;0.40;;;14.50;99.90;;;;;;5058928;28;20040;-73
2023/10/12 14:47:44;;;;;;;0.40;0.40;;;14.40;99.90;;;;;;5061064;28;20036;-74
2023/10/12 14:50:16;;;;;;;0.50;0.50;;;14.40;99.90;;;;;;5068866;28;20056;-73
2023/10/12 14:52:44;;;;;;;0.40;0.40;;;14.30;99.90;;;;;;5035965;28;20045;-72
2023/10/12 14:55:11;;;;;;;0.60;0.60;;;14.30;99.90;;;;;;5064493;28;20044;-72
2023/10/12 14:57:40;;;;;;;0.38;0.38;;;14.30;99.90;;;;;;5054585;28;20091;-73
2023/10/12 15:00:20;;;;;;;0.40;0.40;;;14.30;99.90;;;;;;5038660;28;20043;-72
2023/10/12 15:02:48;;;;;;;0.50;0.50;;;14.20;99.90;;;;;;5065188;28;20052;-73